createdAt,value
2023-11-18T05:15:05.422Z,0.67
2023-11-18T05:16:04.385Z,0.68
2023-11-18T05:17:04.414Z,0.67
2023-11-18T05:18:04.448Z,0.67
2023-11-18T05:19:04.350Z,0.68
2023-11-18T05:20:04.390Z,0.70
2023-11-18T05:21:04.338Z,0.70
2023-11-18T05:22:04.305Z,0.71
2023-11-18T05:23:04.322Z,0.71
2023-11-18T05:24:04.281Z,0.75
2023-11-18T05:25:04.270Z,0.76
2023-11-18T05:26:04.278Z,0.78
2023-11-18T05:27:04.236Z,0.79
2023-11-18T05:28:04.259Z,0.79
2023-11-18T05:29:04.253Z,0.82
2023-11-18T05:30:04.222Z,0.82
2023-11-18T05:31:04.351Z,0.85
2023-11-18T05:32:04.233Z,0.82
2023-11-18T05:33:04.262Z,0.80
2023-11-18T05:34:04.156Z,0.79
2023-11-18T05:35:04.176Z,0.78
2023-11-18T05:36:04.135Z,0.76
2023-11-18T05:37:04.145Z,0.75
2023-11-18T05:38:04.146Z,0.72
2023-11-18T05:39:04.088Z,0.72
2023-11-18T05:40:04.086Z,0.76
2023-11-18T05:41:04.077Z,0.75
2023-11-18T05:42:04.066Z,0.76
2023-11-18T05:43:04.043Z,0.76
2023-11-18T05:44:04.156Z,0.76
2023-11-18T05:45:04.013Z,0.79
2023-11-18T05:46:04.052Z,0.83
2023-11-18T05:47:04.138Z,0.86
2023-11-18T05:48:04.067Z,0.86
2023-11-18T05:49:03.966Z,0.90
2023-11-18T05:50:04.053Z,0.92
2023-11-18T05:51:03.959Z,0.92
2023-11-18T05:52:03.951Z,0.94
2023-11-18T05:53:03.995Z,0.96
2023-11-18T05:54:03.906Z,0.96
2023-11-18T05:55:03.892Z,0.94
2023-11-18T05:56:03.976Z,0.97
2023-11-18T05:57:03.863Z,0.98
2023-11-18T05:58:03.851Z,1.00
2023-11-18T05:59:03.938Z,1.00
2023-11-18T06:00:03.860Z,1.03
2023-11-18T06:01:03.829Z,1.07
2023-11-18T06:02:03.914Z,1.10
2023-11-18T06:03:04.015Z,1.08
2023-11-18T06:04:03.831Z,1.08
2023-11-18T06:05:03.790Z,1.08
2023-11-18T06:06:03.753Z,1.10
2023-11-18T06:07:03.809Z,1.10
2023-11-18T06:08:03.786Z,1.12
2023-11-18T06:09:03.716Z,1.10
2023-11-18T06:10:03.727Z,1.10
2023-11-18T06:11:03.724Z,1.10
2023-11-18T06:12:03.687Z,1.10
2023-11-18T06:13:03.662Z,1.10
2023-11-18T06:14:03.700Z,1.14
2023-11-18T06:15:03.650Z,1.12
2023-11-18T06:16:03.632Z,1.14
2023-11-18T06:17:03.662Z,1.16
2023-11-18T06:18:03.678Z,1.16
2023-11-18T06:19:03.595Z,1.16
2023-11-18T06:20:03.628Z,1.18
2023-11-18T06:21:03.559Z,1.18
2023-11-18T06:22:03.546Z,1.18
2023-11-18T06:23:03.602Z,1.18
2023-11-18T06:24:03.530Z,1.16
2023-11-18T06:25:03.531Z,1.16
2023-11-18T06:26:03.578Z,1.18
2023-11-18T06:27:03.485Z,1.18
2023-11-18T06:28:03.482Z,1.19
2023-11-18T06:29:03.501Z,1.18
2023-11-18T06:30:03.441Z,1.19
2023-11-18T06:31:03.436Z,1.19
2023-11-18T06:32:03.418Z,1.21
2023-11-18T06:33:03.498Z,1.21
2023-11-18T06:34:03.432Z,1.22
2023-11-18T06:35:03.465Z,1.22
2023-11-18T06:36:03.363Z,1.22
2023-11-18T06:37:03.366Z,1.25
2023-11-18T06:38:03.398Z,1.26
2023-11-18T06:39:03.336Z,1.29
2023-11-18T06:40:03.332Z,1.29
2023-11-18T06:41:05.211Z,1.33
2023-11-18T06:42:03.345Z,1.36
2023-11-18T06:43:03.289Z,1.37
2023-11-18T06:44:03.295Z,1.37
2023-11-18T06:45:03.263Z,1.36
2023-11-18T06:46:03.236Z,1.37
2023-11-18T06:47:03.464Z,1.36
2023-11-18T06:48:03.346Z,1.34
2023-11-18T06:49:03.203Z,1.34
2023-11-18T06:50:03.205Z,1.36
2023-11-18T06:51:03.197Z,1.37
2023-11-18T06:52:03.195Z,1.37
2023-11-18T06:53:03.169Z,1.40
2023-11-18T06:54:03.134Z,1.43
2023-11-18T06:55:03.129Z,1.44
2023-11-18T06:56:03.146Z,1.46
2023-11-18T06:57:03.110Z,1.47
2023-11-18T06:58:03.121Z,1.51
2023-11-18T06:59:03.172Z,1.55
2023-11-18T07:00:03.075Z,1.55
2023-11-18T07:01:03.127Z,1.91
2023-11-18T07:02:04.509Z,2.91
2023-11-18T07:03:03.132Z,3.94
2023-11-18T07:04:03.044Z,4.47
2023-11-18T07:05:03.047Z,4.43
2023-11-18T07:06:03.032Z,4.29
2023-11-18T07:07:02.977Z,4.29
2023-11-18T07:08:03.015Z,4.21
2023-11-18T07:09:02.949Z,3.83
2023-11-18T07:10:02.972Z,3.53
2023-11-18T07:11:02.994Z,3.28
2023-11-18T07:12:02.902Z,3.02
2023-11-18T07:13:02.900Z,2.87
2023-11-18T07:14:02.906Z,2.77
2023-11-18T07:15:02.888Z,2.88
2023-11-18T07:16:02.869Z,3.61
2023-11-18T07:17:02.881Z,4.18
2023-11-18T07:18:02.913Z,4.61
2023-11-18T07:19:02.828Z,5.22
2023-11-18T07:20:02.885Z,5.59
2023-11-18T07:21:02.798Z,5.81
2023-11-18T07:22:02.788Z,5.22
2023-11-18T07:23:02.785Z,4.61
2023-11-18T07:24:02.774Z,4.04
2023-11-18T07:25:02.778Z,3.61
2023-11-18T07:26:02.813Z,3.28
2023-11-18T07:27:02.726Z,3.03
2023-11-18T07:28:02.702Z,2.87
2023-11-18T07:29:02.745Z,2.76
2023-11-18T07:30:02.685Z,2.66
2023-11-18T07:31:02.696Z,2.63
2023-11-18T07:32:02.693Z,2.56
2023-11-18T07:33:02.707Z,2.55
2023-11-18T07:34:02.642Z,2.53
2023-11-18T07:35:02.687Z,2.51
2023-11-18T07:36:02.612Z,2.51
2023-11-18T07:37:02.599Z,2.48
2023-11-18T07:38:02.686Z,2.45
2023-11-18T07:39:02.608Z,2.44
2023-11-18T07:40:02.547Z,2.46
2023-11-18T07:41:02.581Z,2.49
2023-11-18T07:42:02.526Z,2.56
2023-11-18T07:43:02.536Z,2.61
2023-11-18T07:44:03.154Z,2.59
2023-11-18T07:45:02.489Z,2.52
2023-11-18T07:46:02.503Z,2.49
2023-11-18T07:47:02.496Z,2.48
2023-11-18T07:48:02.557Z,2.49
2023-11-18T07:49:02.478Z,2.53
2023-11-18T07:50:02.438Z,2.59
2023-11-18T07:51:02.411Z,2.63
2023-11-18T07:52:02.408Z,2.67
2023-11-18T07:53:02.477Z,2.71
2023-11-18T07:54:02.370Z,2.74
2023-11-18T07:55:02.388Z,2.77
2023-11-18T07:56:02.390Z,2.79
2023-11-18T07:57:02.360Z,2.84
2023-11-18T07:58:02.329Z,2.87
2023-11-18T07:59:02.359Z,2.89
2023-11-18T08:00:02.304Z,2.94
2023-11-18T08:01:02.307Z,2.97
2023-11-18T08:02:04.577Z,3.02
2023-11-18T08:03:02.300Z,3.07
2023-11-18T08:04:02.279Z,3.12
2023-11-18T08:05:02.329Z,3.10
2023-11-18T08:06:02.234Z,3.12
2023-11-18T08:07:02.224Z,3.10
2023-11-18T08:08:02.219Z,3.12
2023-11-18T08:09:02.187Z,3.13
2023-11-18T08:10:04.310Z,3.13
2023-11-18T08:11:02.202Z,3.13
2023-11-18T08:12:02.146Z,3.16
2023-11-18T08:13:02.134Z,3.21
2023-11-18T08:14:02.151Z,3.24
2023-11-18T08:15:02.156Z,3.27
2023-11-18T08:16:02.279Z,3.30
2023-11-18T08:17:02.225Z,3.36
2023-11-18T08:18:02.137Z,3.42
2023-11-18T08:19:02.054Z,3.42
2023-11-18T08:20:02.139Z,3.39
2023-11-18T08:21:02.058Z,3.39
2023-11-18T08:22:02.028Z,3.36
2023-11-18T08:23:02.059Z,3.40
2023-11-18T08:24:01.995Z,3.44
2023-11-18T08:25:02.034Z,3.47
2023-11-18T08:26:02.013Z,3.50
2023-11-18T08:27:01.963Z,3.47
2023-11-18T08:28:01.958Z,3.44
2023-11-18T08:29:01.973Z,3.44
2023-11-18T08:30:01.945Z,3.47
2023-11-18T08:31:02.105Z,3.50
2023-11-18T08:32:02.003Z,3.52
2023-11-18T08:33:05.458Z,3.54
2023-11-18T08:34:01.891Z,3.57
2023-11-18T08:35:01.884Z,3.60
2023-11-18T08:36:01.842Z,3.61
2023-11-18T08:37:01.837Z,3.61
2023-11-18T08:38:01.935Z,3.65
2023-11-18T08:39:01.821Z,3.68
2023-11-18T08:40:01.811Z,3.75
2023-11-18T08:41:01.810Z,3.79
2023-11-18T08:42:01.784Z,3.82
2023-11-18T08:43:01.765Z,3.86
2023-11-18T08:44:13.714Z,3.89
2023-11-18T08:45:05.276Z,3.94
2023-11-18T08:46:01.745Z,3.97
2023-11-18T08:47:01.731Z,3.98
2023-11-18T08:48:01.780Z,3.98
2023-11-18T08:49:01.681Z,3.97
2023-11-18T08:50:01.741Z,3.97
2023-11-18T08:51:01.648Z,4.00
2023-11-18T08:52:01.649Z,4.03
2023-11-18T08:53:01.649Z,4.07
2023-11-18T08:54:01.622Z,4.07
2023-11-18T08:55:01.595Z,4.10
2023-11-18T08:56:01.622Z,4.07
2023-11-18T08:57:01.568Z,4.06
2023-11-18T08:58:01.632Z,4.03
2023-11-18T08:59:01.576Z,4.06
2023-11-18T09:00:01.557Z,4.10
2023-11-18T09:01:01.522Z,4.10
2023-11-18T09:02:01.615Z,4.10
2023-11-18T09:03:01.651Z,4.10
2023-11-18T09:04:01.529Z,4.12
2023-11-18T09:05:01.503Z,4.14
2023-11-18T09:06:01.465Z,4.14
2023-11-18T09:07:01.531Z,4.15
2023-11-18T09:08:01.490Z,4.14
2023-11-18T09:09:01.424Z,4.12
2023-11-18T09:10:01.419Z,4.14
2023-11-18T09:11:01.487Z,4.12
2023-11-18T09:12:01.405Z,4.14
2023-11-18T09:13:02.452Z,4.16
2023-11-18T09:14:02.335Z,4.18
2023-11-18T09:15:01.373Z,4.16
2023-11-18T09:16:01.417Z,4.18
2023-11-18T09:17:01.357Z,4.18
2023-11-18T09:18:01.402Z,4.19
2023-11-18T09:19:01.319Z,4.22
2023-11-18T09:20:01.323Z,4.26
2023-11-18T09:21:01.277Z,4.24
2023-11-18T09:22:01.279Z,4.28
2023-11-18T09:23:01.254Z,4.29
2023-11-18T09:24:01.234Z,4.33
2023-11-18T09:25:01.258Z,4.34
2023-11-18T09:26:01.254Z,4.36
2023-11-18T09:27:01.191Z,4.40
2023-11-18T09:28:01.183Z,4.42
2023-11-18T09:29:01.230Z,4.42
2023-11-18T09:30:01.218Z,4.46
2023-11-18T09:31:01.158Z,4.52
2023-11-18T09:32:01.177Z,4.51
2023-11-18T09:33:01.185Z,4.54
2023-11-18T09:34:01.310Z,4.54
2023-11-18T09:35:01.169Z,4.52
2023-11-18T09:36:01.085Z,4.54
2023-11-18T09:37:01.076Z,4.59
2023-11-18T09:38:01.132Z,4.64
2023-11-18T09:39:01.038Z,4.67
2023-11-18T09:40:01.060Z,4.75
2023-11-18T09:41:01.065Z,4.77
2023-11-18T09:42:01.013Z,4.86
2023-11-18T09:43:01.011Z,4.88
2023-11-18T09:44:01.046Z,4.91
2023-11-18T09:45:00.996Z,4.94
2023-11-18T09:46:00.995Z,4.98
2023-11-18T09:47:00.972Z,4.99
2023-11-18T09:48:00.999Z,5.04
2023-11-18T09:49:01.101Z,5.04
2023-11-18T09:50:01.128Z,5.05
2023-11-18T09:51:00.956Z,5.12
2023-11-18T09:52:00.894Z,5.13
2023-11-18T09:53:00.901Z,5.17
2023-11-18T09:54:00.869Z,5.22
2023-11-18T09:55:00.850Z,5.27
2023-11-18T09:56:00.873Z,5.28
2023-11-18T09:57:00.848Z,5.28
2023-11-18T09:58:00.827Z,5.30
2023-11-18T09:59:00.824Z,5.35
2023-11-18T10:00:00.783Z,5.38
2023-11-18T10:01:00.767Z,5.43
2023-11-18T10:02:00.818Z,5.48
2023-11-18T10:03:00.888Z,5.49
2023-11-18T10:04:00.827Z,5.50
2023-11-18T10:05:00.743Z,5.50
2023-11-18T10:06:00.703Z,5.52
2023-11-18T10:07:00.688Z,5.52
2023-11-18T10:08:01.012Z,5.53
2023-11-18T10:09:00.671Z,5.56
2023-11-18T10:10:00.649Z,5.56
2023-11-18T10:11:00.655Z,5.60
2023-11-18T10:12:00.636Z,5.59
2023-11-18T10:13:00.618Z,5.63
2023-11-18T10:14:00.676Z,5.66
2023-11-18T10:15:00.589Z,5.68
2023-11-18T10:16:00.577Z,5.70
2023-11-18T10:17:00.590Z,5.74
2023-11-18T10:18:00.820Z,5.75
2023-11-18T10:19:00.546Z,5.78
2023-11-18T10:20:00.572Z,5.81
2023-11-18T10:21:00.512Z,5.83
2023-11-18T10:22:01.923Z,5.86
2023-11-18T10:23:00.515Z,5.88
2023-11-18T10:24:00.472Z,5.88
2023-11-18T10:25:00.477Z,5.91
2023-11-18T10:26:00.508Z,5.91
2023-11-18T10:27:00.448Z,5.93
2023-11-18T10:28:02.509Z,5.96
2023-11-18T10:29:00.450Z,6.01
2023-11-18T10:30:00.404Z,6.03
2023-11-18T10:31:00.445Z,6.03
2023-11-18T10:32:00.411Z,6.06
2023-11-18T10:33:00.404Z,6.09
2023-11-18T10:34:01.598Z,6.09
2023-11-18T10:35:00.533Z,6.07
2023-11-18T10:36:00.331Z,6.09
2023-11-18T10:37:00.301Z,6.09
2023-11-18T10:39:00.276Z,6.11
2023-11-18T10:40:00.306Z,6.14
2023-11-18T10:41:00.326Z,6.14
2023-11-18T10:42:00.257Z,6.16
2023-11-18T10:43:00.278Z,6.16
2023-11-18T10:44:00.289Z,6.16
2023-11-18T10:45:00.338Z,6.19
2023-11-18T10:46:00.236Z,6.22
2023-11-18T10:47:00.710Z,6.19
2023-11-18T10:48:00.201Z,6.19
2023-11-18T10:49:00.176Z,6.22
2023-11-18T10:50:00.318Z,6.25
2023-11-18T10:51:00.121Z,6.25
2023-11-18T10:52:02.903Z,6.26
2023-11-18T10:53:00.126Z,6.25
2023-11-18T10:54:00.486Z,6.29
2023-11-18T10:55:00.131Z,6.32
2023-11-18T10:56:00.087Z,6.33
2023-11-18T10:57:00.042Z,6.36
2023-11-18T10:58:02.753Z,6.38
2023-11-18T10:59:00.079Z,6.43
2023-11-18T11:00:00.001Z,6.44
2023-11-18T11:00:59.998Z,6.41
2023-11-18T11:02:00.089Z,6.41
2023-11-18T11:03:00.115Z,6.44
2023-11-18T11:04:02.596Z,6.46
2023-11-18T11:05:00.021Z,6.46
2023-11-18T11:05:59.957Z,6.46
2023-11-18T11:06:59.918Z,6.46
2023-11-18T11:07:59.940Z,6.47
2023-11-18T11:08:59.910Z,6.48
2023-11-18T11:09:59.872Z,6.48
2023-11-18T11:11:00.019Z,6.48
2023-11-18T11:11:59.854Z,6.50
2023-11-18T11:12:59.847Z,6.47
2023-11-18T11:13:59.837Z,6.48
2023-11-18T11:14:59.813Z,6.50
2023-11-18T11:15:59.799Z,6.50
2023-11-18T11:16:59.864Z,6.50
2023-11-18T11:17:59.869Z,6.50
2023-11-18T11:18:59.753Z,6.47
2023-11-18T11:19:59.783Z,6.50
2023-11-18T11:20:59.729Z,6.54
2023-11-18T11:21:59.725Z,6.56
2023-11-18T11:22:59.782Z,6.53
2023-11-18T11:23:59.695Z,6.54
2023-11-18T11:24:59.686Z,6.56
2023-11-18T11:25:59.711Z,6.56
2023-11-18T11:26:59.662Z,6.58
2023-11-18T11:27:59.656Z,6.59
2023-11-18T11:28:59.636Z,6.61
2023-11-18T11:29:59.623Z,6.61
2023-11-18T11:30:59.615Z,6.62
2023-11-18T11:31:59.674Z,6.66
2023-11-18T11:32:59.580Z,6.66
2023-11-18T11:33:59.595Z,6.69
2023-11-18T11:34:59.588Z,6.71
2023-11-18T11:35:59.540Z,6.72
2023-11-18T11:36:59.536Z,6.76
2023-11-18T11:37:59.592Z,6.76
2023-11-18T11:38:59.505Z,6.77
2023-11-18T11:39:59.766Z,6.80
2023-11-18T11:40:59.532Z,6.80
2023-11-18T11:41:59.473Z,6.83
2023-11-18T11:42:59.441Z,6.81
2023-11-18T11:43:59.612Z,6.81
2023-11-18T11:44:59.470Z,6.79
2023-11-18T11:45:59.442Z,6.80
2023-11-18T11:46:59.477Z,6.80
2023-11-18T11:47:59.473Z,6.81
2023-11-18T11:48:59.371Z,6.79
2023-11-18T11:50:01.747Z,6.79
2023-11-18T11:50:59.379Z,6.80
2023-11-18T11:51:59.343Z,6.80
2023-11-18T11:52:59.325Z,6.81
2023-11-18T11:53:59.352Z,6.81
2023-11-18T11:54:59.299Z,6.80
2023-11-18T11:55:59.347Z,6.81
2023-11-18T11:56:59.269Z,6.80
2023-11-18T11:57:59.267Z,6.81
2023-11-18T11:58:59.279Z,6.83
2023-11-18T11:59:59.263Z,6.84
2023-11-18T12:00:59.258Z,6.86
2023-11-18T12:01:59.364Z,6.87
2023-11-18T12:02:59.205Z,6.87
2023-11-18T12:03:59.644Z,6.86
2023-11-18T12:04:59.289Z,6.87
2023-11-18T12:05:59.158Z,6.86
2023-11-18T12:07:08.604Z,6.87
2023-11-18T12:08:00.188Z,6.87
2023-11-18T12:08:59.124Z,6.87
2023-11-18T12:09:59.157Z,6.89
2023-11-18T12:10:59.129Z,6.90
2023-11-18T12:12:00.470Z,6.91
2023-11-18T12:12:59.063Z,6.91
2023-11-18T12:13:59.107Z,6.91
2023-11-18T12:14:59.158Z,6.94
2023-11-18T12:15:59.173Z,6.94
2023-11-18T12:16:59.003Z,6.95
2023-11-18T12:17:59.373Z,6.94
2023-11-18T12:18:58.991Z,6.91
2023-11-18T12:19:59.010Z,6.94
2023-11-18T12:20:59.060Z,6.94
2023-11-18T12:21:58.955Z,6.94
2023-11-18T12:22:59.004Z,6.95
2023-11-18T12:23:58.930Z,6.95
2023-11-18T12:24:59.373Z,6.95
2023-11-18T12:25:59.087Z,6.94
2023-11-18T12:26:58.882Z,6.95
2023-11-18T12:27:58.895Z,6.97
2023-11-18T12:28:58.930Z,6.97
2023-11-18T12:29:58.848Z,6.97
2023-11-18T12:30:59.320Z,6.95
2023-11-18T12:31:58.969Z,6.98
2023-11-18T12:32:58.883Z,6.98
2023-11-18T12:33:58.791Z,6.97
2023-11-18T12:34:58.801Z,6.95
2023-11-18T12:35:58.768Z,6.95
2023-11-18T12:36:58.790Z,6.95
2023-11-18T12:37:58.773Z,6.95
2023-11-18T12:38:58.817Z,6.95
2023-11-18T12:39:58.712Z,6.95
2023-11-18T12:40:58.789Z,6.95
2023-11-18T12:41:58.715Z,6.95
2023-11-18T12:42:58.678Z,6.95
2023-11-18T12:43:58.688Z,6.95
2023-11-18T12:44:58.662Z,6.94
2023-11-18T12:45:58.688Z,6.97
2023-11-18T12:46:58.662Z,6.95
2023-11-18T12:47:58.670Z,6.95
2023-11-18T12:48:58.594Z,6.97
2023-11-18T12:49:58.750Z,6.95
2023-11-18T12:50:58.577Z,6.97
2023-11-18T12:51:58.576Z,6.97
2023-11-18T12:52:58.814Z,6.98
2023-11-18T12:53:58.535Z,6.98
2023-11-18T12:54:58.512Z,6.98
2023-11-18T12:55:58.544Z,6.99
2023-11-18T12:56:58.505Z,6.98
2023-11-18T12:57:58.485Z,6.99
2023-11-18T12:58:58.489Z,6.99
2023-11-18T12:59:58.473Z,7.02
2023-11-18T13:00:58.571Z,7.02
2023-11-18T13:01:59.051Z,7.04
2023-11-18T13:02:58.605Z,7.05
2023-11-18T13:03:58.530Z,7.05
2023-11-18T13:04:58.409Z,7.08
2023-11-18T13:05:58.402Z,7.07
2023-11-18T13:06:58.368Z,7.07
2023-11-18T13:07:58.414Z,7.08
2023-11-18T13:08:58.359Z,7.09
2023-11-18T13:09:58.344Z,7.12
2023-11-18T13:10:58.341Z,7.13
2023-11-18T13:12:00.450Z,7.16
2023-11-18T13:12:58.291Z,7.15
2023-11-18T13:13:58.347Z,7.16
2023-11-18T13:14:58.290Z,7.16
2023-11-18T13:15:58.275Z,7.17
2023-11-18T13:16:58.257Z,7.19
2023-11-18T13:17:58.260Z,7.17
2023-11-18T13:18:58.224Z,7.20
2023-11-18T13:19:58.264Z,7.22
2023-11-18T13:20:58.184Z,7.20
2023-11-18T13:21:58.174Z,7.23
2023-11-18T13:22:58.178Z,7.23
2023-11-18T13:23:58.169Z,7.22
2023-11-18T13:24:58.144Z,7.22
2023-11-18T13:25:58.162Z,7.23
2023-11-18T13:26:58.110Z,7.23
2023-11-18T13:27:58.108Z,7.23
2023-11-18T13:28:58.125Z,7.24
2023-11-18T13:29:58.076Z,7.26
2023-11-18T13:30:58.071Z,7.26
2023-11-18T13:31:58.068Z,7.26
2023-11-18T13:32:58.099Z,7.26
2023-11-18T13:33:58.081Z,7.27
2023-11-18T13:34:58.049Z,7.29
2023-11-18T13:35:57.995Z,7.29
2023-11-18T13:36:57.988Z,7.31
2023-11-18T13:37:57.999Z,7.31
2023-11-18T13:38:57.976Z,7.32
2023-11-18T13:39:57.962Z,7.34
2023-11-18T13:40:57.936Z,7.37
2023-11-18T13:41:57.920Z,7.37
2023-11-18T13:42:57.916Z,7.37
2023-11-18T13:43:57.918Z,7.38
2023-11-18T13:44:57.895Z,7.38
2023-11-18T13:45:57.911Z,7.41
2023-11-18T13:46:57.910Z,7.42
2023-11-18T13:47:57.925Z,7.42
2023-11-18T13:48:57.834Z,7.41
2023-11-18T13:49:57.868Z,7.44
2023-11-18T13:50:57.837Z,7.45
2023-11-18T13:51:57.801Z,7.44
2023-11-18T13:52:58.010Z,7.44
2023-11-18T13:53:57.777Z,7.44
2023-11-18T13:54:57.751Z,7.44
2023-11-18T13:55:57.779Z,7.45
2023-11-18T13:56:57.730Z,7.45
2023-11-18T13:57:57.717Z,7.44
2023-11-18T13:58:57.741Z,7.45
2023-11-18T13:59:57.694Z,7.44
2023-11-18T14:00:57.696Z,7.45
2023-11-18T14:01:57.802Z,7.45
2023-11-18T14:02:57.813Z,7.47
2023-11-18T14:03:57.706Z,7.47
2023-11-18T14:04:57.655Z,7.49
2023-11-18T14:05:57.642Z,7.49
2023-11-18T14:06:57.603Z,7.49
2023-11-18T14:07:57.609Z,7.50
2023-11-18T14:08:57.594Z,7.50
2023-11-18T14:09:57.560Z,7.50
2023-11-18T14:11:02.975Z,7.50
2023-11-18T14:11:58.556Z,7.49
2023-11-18T14:12:57.526Z,7.50
2023-11-18T14:13:57.533Z,7.50
2023-11-18T14:14:57.512Z,7.49
2023-11-18T14:15:57.588Z,7.47
2023-11-18T14:16:57.503Z,7.49
2023-11-18T14:17:57.459Z,7.47
2023-11-18T14:18:57.452Z,7.47
2023-11-18T14:19:57.482Z,7.47
2023-11-18T14:20:57.417Z,7.47
2023-11-18T14:21:57.396Z,7.47
2023-11-18T14:22:57.467Z,7.45
2023-11-18T14:23:57.410Z,7.45
2023-11-18T14:24:57.394Z,7.45
2023-11-18T14:25:57.387Z,7.47
2023-11-18T14:26:57.347Z,7.47
2023-11-18T14:27:57.328Z,7.49
2023-11-18T14:28:57.339Z,7.47
2023-11-18T14:29:57.299Z,7.49
2023-11-18T14:30:57.366Z,7.50
2023-11-18T14:31:57.422Z,7.50
2023-11-18T14:32:57.299Z,7.49
2023-11-18T14:33:57.264Z,7.50
2023-11-18T14:34:57.274Z,7.49
2023-11-18T14:35:57.229Z,7.49
2023-11-18T14:36:57.222Z,7.49
2023-11-18T14:37:57.312Z,7.50
2023-11-18T14:38:57.230Z,7.53
2023-11-18T14:39:57.167Z,7.52
2023-11-18T14:40:57.213Z,7.50
2023-11-18T14:41:57.143Z,7.49
2023-11-18T14:42:57.142Z,7.49
2023-11-18T14:43:57.178Z,7.49
2023-11-18T14:44:57.114Z,7.50
2023-11-18T14:45:57.113Z,7.50
2023-11-18T14:46:57.117Z,7.49
2023-11-18T14:47:57.368Z,7.49
2023-11-18T14:48:57.050Z,7.49
2023-11-18T14:49:57.058Z,7.50
2023-11-18T14:50:57.019Z,7.52
2023-11-18T14:51:57.014Z,7.50
2023-11-18T14:52:57.055Z,7.50
2023-11-18T14:53:56.998Z,7.50
2023-11-18T14:54:56.976Z,7.49
2023-11-18T14:55:56.993Z,7.50
2023-11-18T14:56:56.961Z,7.49
2023-11-18T14:57:56.955Z,7.50
2023-11-18T14:58:56.935Z,7.49
2023-11-18T14:59:56.917Z,7.50
2023-11-18T15:00:56.898Z,7.50
2023-11-18T15:01:56.935Z,7.50
2023-11-18T15:02:59.946Z,7.52
2023-11-18T15:03:56.952Z,7.49
2023-11-18T15:04:56.873Z,7.47
2023-11-18T15:05:56.837Z,7.47
2023-11-18T15:06:56.854Z,7.49
2023-11-18T15:07:56.936Z,7.49
2023-11-18T15:08:56.800Z,7.49
2023-11-18T15:09:56.786Z,7.47
2023-11-18T15:10:56.789Z,7.49
2023-11-18T15:11:56.773Z,7.45
2023-11-18T15:12:56.742Z,7.42
2023-11-18T15:13:56.754Z,7.42
2023-11-18T15:14:56.720Z,7.40
2023-11-18T15:15:56.766Z,7.41
2023-11-18T15:16:56.873Z,7.40
2023-11-18T15:17:56.714Z,7.38
2023-11-18T15:18:56.718Z,7.37
2023-11-18T15:19:56.689Z,7.38
2023-11-18T15:20:56.648Z,7.37
2023-11-18T15:21:56.636Z,7.37
2023-11-18T15:22:56.671Z,7.34
2023-11-18T15:23:56.610Z,7.32
2023-11-18T15:24:56.603Z,7.32
2023-11-18T15:25:56.631Z,7.31
2023-11-18T15:26:56.580Z,7.29
2023-11-18T15:27:56.553Z,7.27
2023-11-18T15:28:56.605Z,7.26
2023-11-18T15:29:56.536Z,7.24
2023-11-18T15:30:56.555Z,7.24
2023-11-18T15:31:56.583Z,7.24
2023-11-18T15:32:56.511Z,7.23
2023-11-18T15:33:56.493Z,7.23
2023-11-18T15:34:56.496Z,7.24
2023-11-18T15:35:56.448Z,7.22
2023-11-18T15:36:56.439Z,7.22
2023-11-18T15:37:56.448Z,7.22
2023-11-18T15:38:56.423Z,7.23
2023-11-18T15:39:56.410Z,7.22
2023-11-18T15:40:56.477Z,7.20
2023-11-18T15:41:56.378Z,7.17
2023-11-18T15:42:56.359Z,7.20
2023-11-18T15:43:56.381Z,7.17
2023-11-18T15:44:57.291Z,7.17
2023-11-18T15:45:56.319Z,7.16
2023-11-18T15:46:56.382Z,7.16
2023-11-18T15:47:56.422Z,7.16
2023-11-18T15:48:56.305Z,7.16
2023-11-18T15:49:56.362Z,7.16
2023-11-18T15:50:57.428Z,7.15
2023-11-18T15:51:56.241Z,7.13
2023-11-18T15:52:56.269Z,7.13
2023-11-18T15:53:56.227Z,7.12
2023-11-18T15:54:56.202Z,7.13
2023-11-18T15:55:56.327Z,7.09
2023-11-18T15:56:58.148Z,7.13
2023-11-18T15:57:56.278Z,7.15
2023-11-18T15:58:56.193Z,7.15
2023-11-18T15:59:56.139Z,7.13
2023-11-18T16:00:56.172Z,7.12
2023-11-18T16:01:56.132Z,7.13
2023-11-18T16:02:59.689Z,7.12
2023-11-18T16:03:57.182Z,7.13
2023-11-18T16:04:56.103Z,7.12
2023-11-18T16:05:56.075Z,7.12
2023-11-18T16:06:56.071Z,7.12
2023-11-18T16:07:56.081Z,7.09
2023-11-18T16:08:56.017Z,7.12
2023-11-18T16:09:56.012Z,7.09
2023-11-18T16:10:56.006Z,7.09
2023-11-18T16:11:56.008Z,7.12
2023-11-18T16:12:55.967Z,7.07
2023-11-18T16:13:56.026Z,7.09
2023-11-18T16:14:56.115Z,7.07
2023-11-18T16:15:55.955Z,7.09
2023-11-18T16:16:56.019Z,7.08
2023-11-18T16:17:56.006Z,7.05
2023-11-18T16:18:55.887Z,7.05
2023-11-18T16:19:55.917Z,7.05
2023-11-18T16:20:55.884Z,7.05
2023-11-18T16:21:55.858Z,7.07
2023-11-18T16:22:55.976Z,7.04
2023-11-18T16:23:55.841Z,7.02
2023-11-18T16:24:55.834Z,7.02
2023-11-18T16:25:55.842Z,7.01
2023-11-18T16:26:55.788Z,6.99
2023-11-18T16:27:55.803Z,6.98
2023-11-18T16:28:55.798Z,6.99
2023-11-18T16:29:55.771Z,7.02
2023-11-18T16:30:55.829Z,7.02
2023-11-18T16:31:55.800Z,7.02
2023-11-18T16:32:55.939Z,7.02
2023-11-18T16:33:55.775Z,7.01
2023-11-18T16:34:55.724Z,6.99
2023-11-18T16:35:55.682Z,7.01
2023-11-18T16:36:55.660Z,7.02
2023-11-18T16:37:56.117Z,7.02
2023-11-18T16:38:55.631Z,7.01
2023-11-18T16:39:55.657Z,6.99
2023-11-18T16:40:55.642Z,6.99
2023-11-18T16:41:55.678Z,6.99
2023-11-18T16:42:55.584Z,7.02
2023-11-18T16:43:55.658Z,7.04
2023-11-18T16:44:55.572Z,7.01
2023-11-18T16:45:55.567Z,7.02
2023-11-18T16:46:55.609Z,7.02
2023-11-18T16:47:56.129Z,7.04
2023-11-18T16:48:55.525Z,7.02
2023-11-18T16:50:03.040Z,7.02
2023-11-18T16:50:56.520Z,7.01
2023-11-18T16:51:58.278Z,7.02
2023-11-18T16:52:55.550Z,7.02
2023-11-18T16:53:55.458Z,7.01
2023-11-18T16:54:55.430Z,7.02
2023-11-18T16:55:55.457Z,6.99
2023-11-18T16:56:55.428Z,7.02
2023-11-18T16:57:55.684Z,7.02
2023-11-18T16:58:55.474Z,6.99
2023-11-18T16:59:55.378Z,6.99
2023-11-18T17:00:55.368Z,6.98
2023-11-18T17:01:55.366Z,6.98
2023-11-18T17:02:55.957Z,6.99
2023-11-18T17:03:55.410Z,7.02
2023-11-18T17:04:55.439Z,7.04
2023-11-18T17:05:55.298Z,7.01
2023-11-18T17:06:55.274Z,7.04
2023-11-18T17:07:55.745Z,7.04
2023-11-18T17:08:55.249Z,7.02
2023-11-18T17:09:55.251Z,7.04
2023-11-18T17:10:55.439Z,7.04
2023-11-18T17:11:55.229Z,7.02
2023-11-18T17:12:55.222Z,7.02
2023-11-18T17:13:55.242Z,7.04
2023-11-18T17:14:55.182Z,7.02
2023-11-18T17:15:55.173Z,7.04
2023-11-18T17:16:55.287Z,7.07
2023-11-18T17:17:55.301Z,7.05
2023-11-18T17:18:55.378Z,7.04
2023-11-18T17:19:55.138Z,7.05
2023-11-18T17:20:55.118Z,7.02
2023-11-18T17:21:55.118Z,6.99
2023-11-18T17:22:55.130Z,6.99
2023-11-18T17:23:55.068Z,6.99
2023-11-18T17:24:55.055Z,7.01
2023-11-18T17:25:55.066Z,6.99
2023-11-18T17:26:55.037Z,7.02
2023-11-18T17:27:55.148Z,7.04
2023-11-18T17:28:55.031Z,7.04
2023-11-18T17:29:54.977Z,7.04
2023-11-18T17:30:54.992Z,7.02
2023-11-18T17:31:55.074Z,7.04
2023-11-18T17:32:55.080Z,7.07
2023-11-18T17:33:54.947Z,7.07
2023-11-18T17:34:54.935Z,7.07
2023-11-18T17:35:54.924Z,7.09
2023-11-18T17:36:54.894Z,7.07
2023-11-18T17:37:54.892Z,7.08
2023-11-18T17:38:54.868Z,7.07
2023-11-18T17:39:54.854Z,7.08
2023-11-18T17:40:54.869Z,7.07
2023-11-18T17:41:54.842Z,7.07
2023-11-18T17:42:55.222Z,7.08
2023-11-18T17:43:54.811Z,7.08
2023-11-18T17:44:54.799Z,7.09
2023-11-18T17:45:54.784Z,7.13
2023-11-18T17:46:54.769Z,7.12
2023-11-18T17:47:54.771Z,7.09
2023-11-18T17:48:54.739Z,7.09
2023-11-18T17:49:54.751Z,7.09
2023-11-18T17:50:54.754Z,7.09
2023-11-18T17:51:54.708Z,7.12
2023-11-18T17:52:54.717Z,7.13
2023-11-18T17:53:54.688Z,7.15
2023-11-18T17:54:54.677Z,7.13
2023-11-18T17:55:54.644Z,7.13
2023-11-18T17:56:54.635Z,7.15
2023-11-18T17:57:54.626Z,7.15
2023-11-18T17:58:54.636Z,7.13
2023-11-18T17:59:54.601Z,7.15
2023-11-18T18:00:54.591Z,7.15
2023-11-18T18:01:54.567Z,7.16
2023-11-18T18:02:54.786Z,7.15
2023-11-18T18:03:54.596Z,7.16
2023-11-18T18:04:54.536Z,7.17
2023-11-18T18:05:54.511Z,7.16
2023-11-18T18:06:54.514Z,7.19
2023-11-18T18:07:54.626Z,7.19
2023-11-18T18:08:54.489Z,7.19
2023-11-18T18:09:54.462Z,7.20
2023-11-18T18:10:54.464Z,7.20
2023-11-18T18:11:54.454Z,7.23
2023-11-18T18:12:54.455Z,7.22
2023-11-18T18:13:54.426Z,7.23
2023-11-18T18:14:54.440Z,7.23
2023-11-18T18:15:54.417Z,7.24
2023-11-18T18:16:54.391Z,7.26
2023-11-18T18:17:54.468Z,7.26
2023-11-18T18:18:54.351Z,7.29
2023-11-18T18:19:54.334Z,7.31
2023-11-18T18:20:54.327Z,7.31
2023-11-18T18:21:54.345Z,7.31
2023-11-18T18:22:54.316Z,7.31
2023-11-18T18:23:54.286Z,7.32
2023-11-18T18:24:54.277Z,7.32
2023-11-18T18:25:54.260Z,7.32
2023-11-18T18:26:54.296Z,7.37
2023-11-18T18:27:54.230Z,7.37
2023-11-18T18:28:56.758Z,7.38
2023-11-18T18:29:54.212Z,7.40
2023-11-18T18:30:54.202Z,7.40
2023-11-18T18:31:54.207Z,7.41
2023-11-18T18:32:54.217Z,7.41
2023-11-18T18:33:54.178Z,7.41